Time;durP1;ratioP1;P1;durP2;ratioP2;P2;SDS_P1;SDS_P2;PMS_P1;PMS_P2;Temp;Humidity;BMP_temperature;BMP_pressure;BME280_temperature;BME280_humidity;BME280_pressure;Samples;Min_cycle;Max_cycle;Signal;HPM_P1;HPM_P2
2023/12/01 00:00:34;;;;;;;39.90;16.55;;;;;;;;;;5008749;28;20038;-90
2023/12/01 00:03:03;;;;;;;39.13;16.52;;;;;;;;;;4988366;28;20073;-91
2023/12/01 00:05:29;;;;;;;40.00;17.63;;;;;;;;;;5008445;28;20086;-90
2023/12/01 00:07:55;;;;;;;38.53;15.55;;;;;;;;;;5038156;28;20519;-90
2023/12/01 00:10:21;;;;;;;40.13;17.63;;;;;;;;;;5018067;28;20124;-90
2023/12/01 00:12:47;;;;;;;40.13;17.90;;;;;;;;;;5023197;28;20039;-89
2023/12/01 00:15:13;;;;;;;37.13;17.38;;;;;;;;;;5023482;28;20042;-90
2023/12/01 00:17:39;;;;;;;40.58;16.63;;;;;;;;;;4990844;28;20104;-90
2023/12/01 00:20:06;;;;;;;41.45;17.25;;;;;;;;;;5020812;28;20110;-89
2023/12/01 00:22:32;;;;;;;38.67;16.50;;;;;;;;;;5010412;28;20133;-89
2023/12/01 00:24:58;;;;;;;41.35;15.68;;;;;;;;;;5009042;28;20062;-90
2023/12/01 00:27:24;;;;;;;35.22;14.98;;;;;;;;;;5009558;28;20149;-89
2023/12/01 00:29:51;;;;;;;37.88;15.75;;;;;;;;;;5010023;28;20044;-90
2023/12/01 00:32:18;;;;;;;31.67;13.90;;;;;;;;;;4995475;28;20398;-91
2023/12/01 00:34:45;;;;;;;32.08;14.40;;;;;;;;;;5009715;28;20053;-89
2023/12/01 00:37:11;;;;;;;27.42;13.27;;;;;;;;;;5010475;28;20121;-89
2023/12/01 00:39:38;;;;;;;34.40;13.95;;;;;;;;;;5010666;28;20046;-90
2023/12/01 00:42:04;;;;;;;30.23;13.95;;;;;;;;;;5012214;28;20037;-89
2023/12/01 00:44:30;;;;;;;31.60;14.10;;;;;;;;;;4997092;28;20081;-90
2023/12/01 00:46:57;;;;;;;36.70;14.25;;;;;;;;;;5023286;28;20078;-90
2023/12/01 00:49:23;;;;;;;29.20;12.88;;;;;;;;;;4995423;28;20150;-90
2023/12/01 00:51:49;;;;;;;30.40;12.85;;;;;;;;;;5009498;28;20054;-90
2023/12/01 00:54:15;;;;;;;28.88;13.07;;;;;;;;;;5008593;28;20095;-90
2023/12/01 00:56:41;;;;;;;27.85;12.73;;;;;;;;;;5012472;28;20038;-90
2023/12/01 00:59:07;;;;;;;28.48;13.27;;;;;;;;;;5009960;28;20077;-90
2023/12/01 01:01:35;;;;;;;28.83;13.30;;;;;;;;;;5000857;28;20086;-88
2023/12/01 01:04:01;;;;;;;25.90;13.38;;;;;;;;;;5004695;28;20056;-89
2023/12/01 01:06:27;;;;;;;30.27;13.18;;;;;;;;;;4999357;28;20061;-89
2023/12/01 01:08:53;;;;;;;30.42;13.57;;;;;;;;;;5000308;28;20042;-89
2023/12/01 01:11:19;;;;;;;33.45;14.10;;;;;;;;;;5009816;28;20412;-90
2023/12/01 01:13:45;;;;;;;28.90;13.05;;;;;;;;;;5026324;28;20500;-90
2023/12/01 01:16:11;;;;;;;29.90;12.20;;;;;;;;;;5009068;28;20053;-89
2023/12/01 01:18:38;;;;;;;25.70;12.00;;;;;;;;;;5010121;28;20080;-90
2023/12/01 01:21:04;;;;;;;32.00;13.43;;;;;;;;;;5025341;28;20037;-90
2023/12/01 01:23:30;;;;;;;35.50;13.27;;;;;;;;;;5009532;28;20252;-90
2023/12/01 01:25:56;;;;;;;33.85;14.68;;;;;;;;;;5025655;28;20076;-90
2023/12/01 01:28:22;;;;;;;31.90;13.85;;;;;;;;;;5042776;28;20396;-89
2023/12/01 01:30:48;;;;;;;32.70;14.48;;;;;;;;;;5023080;28;20129;-89
2023/12/01 01:33:15;;;;;;;32.35;15.02;;;;;;;;;;5004237;28;20189;-90
2023/12/01 01:35:41;;;;;;;31.73;13.55;;;;;;;;;;5009607;28;20195;-90
2023/12/01 01:38:09;;;;;;;30.40;13.10;;;;;;;;;;5025179;28;20184;-89
2023/12/01 01:40:36;;;;;;;30.50;14.02;;;;;;;;;;5025465;28;20105;-90
2023/12/01 01:43:02;;;;;;;24.77;12.15;;;;;;;;;;5026582;28;20682;-90
2023/12/01 01:45:29;;;;;;;25.80;12.48;;;;;;;;;;5026003;28;20461;-90
2023/12/01 01:47:58;;;;;;;32.00;12.98;;;;;;;;;;5023713;28;20125;-90
2023/12/01 01:50:26;;;;;;;29.52;13.40;;;;;;;;;;5003461;28;20520;-90
2023/12/01 01:52:53;;;;;;;27.60;12.07;;;;;;;;;;5021233;28;20042;-90
2023/12/01 01:55:22;;;;;;;29.52;12.18;;;;;;;;;;5018317;28;20049;-90
2023/12/01 01:57:49;;;;;;;30.55;12.90;;;;;;;;;;5030962;28;20128;-90
2023/12/01 02:00:19;;;;;;;29.60;12.95;;;;;;;;;;5025023;28;20506;-90
2023/12/01 02:02:46;;;;;;;26.15;12.02;;;;;;;;;;5009061;28;20058;-89
2023/12/01 02:05:13;;;;;;;24.05;11.20;;;;;;;;;;4994123;28;20435;-90
2023/12/01 02:07:40;;;;;;;29.35;12.98;;;;;;;;;;5025279;28;20053;-90
2023/12/01 02:10:15;;;;;;;30.27;13.20;;;;;;;;;;5013326;28;20142;-91
2023/12/01 02:12:41;;;;;;;25.85;11.98;;;;;;;;;;5013412;28;20075;-89
2023/12/01 02:15:10;;;;;;;26.42;12.75;;;;;;;;;;5021820;28;20096;-89
2023/12/01 02:17:38;;;;;;;26.13;12.43;;;;;;;;;;4998642;28;20042;-91
2023/12/01 02:20:05;;;;;;;26.88;12.25;;;;;;;;;;5004426;28;20101;-90
2023/12/01 02:22:32;;;;;;;26.42;12.23;;;;;;;;;;4990599;28;20058;-90
2023/12/01 02:24:58;;;;;;;22.85;11.85;;;;;;;;;;5000986;28;20148;-90
2023/12/01 02:27:25;;;;;;;21.77;11.23;;;;;;;;;;5013942;28;20050;-91
2023/12/01 02:29:51;;;;;;;22.05;11.38;;;;;;;;;;5012524;28;20125;-89
2023/12/01 02:32:18;;;;;;;23.08;11.50;;;;;;;;;;5012104;28;20153;-90
2023/12/01 02:34:45;;;;;;;25.33;11.93;;;;;;;;;;5013339;28;20492;-88
2023/12/01 02:37:11;;;;;;;24.75;12.68;;;;;;;;;;5023244;28;20072;-90
2023/12/01 02:39:37;;;;;;;23.40;11.20;;;;;;;;;;5019327;28;20396;-90
2023/12/01 02:42:03;;;;;;;21.95;12.00;;;;;;;;;;5019295;28;20045;-89
2023/12/01 02:44:29;;;;;;;22.70;11.00;;;;;;;;;;5022044;28;20145;-90
2023/12/01 02:46:56;;;;;;;24.17;11.93;;;;;;;;;;5010403;28;20125;-90
2023/12/01 02:49:24;;;;;;;23.15;11.35;;;;;;;;;;5027573;28;20583;-90
2023/12/01 02:51:51;;;;;;;23.00;12.02;;;;;;;;;;5025557;28;20504;-91
2023/12/01 02:54:17;;;;;;;22.23;12.30;;;;;;;;;;4997616;28;20038;-89
2023/12/01 02:56:43;;;;;;;24.23;11.90;;;;;;;;;;5012479;28;20045;-89
2023/12/01 02:59:09;;;;;;;24.67;12.23;;;;;;;;;;5025538;28;20080;-90
2023/12/01 03:01:35;;;;;;;24.50;12.50;;;;;;;;;;5028494;28;20050;-89
2023/12/01 03:04:01;;;;;;;25.00;12.00;;;;;;;;;;5034125;28;20103;-89
2023/12/01 03:06:27;;;;;;;23.65;12.40;;;;;;;;;;4994655;28;20049;-89
2023/12/01 03:08:53;;;;;;;27.40;12.10;;;;;;;;;;5039145;28;20488;-89
2023/12/01 03:11:24;;;;;;;23.75;12.60;;;;;;;;;;5009135;28;20077;-89
2023/12/01 03:13:50;;;;;;;26.08;12.52;;;;;;;;;;4993272;28;20048;-88
2023/12/01 03:16:16;;;;;;;26.80;12.98;;;;;;;;;;5001454;28;20042;-88
2023/12/01 03:18:42;;;;;;;26.13;13.35;;;;;;;;;;5020775;28;20045;-89
2023/12/01 03:21:12;;;;;;;26.17;12.95;;;;;;;;;;5003264;28;20061;-89
2023/12/01 03:23:40;;;;;;;21.63;10.75;;;;;;;;;;5008349;28;20046;-89
2023/12/01 03:26:10;;;;;;;25.33;12.45;;;;;;;;;;5014484;28;20197;-89
2023/12/01 03:28:36;;;;;;;25.40;11.95;;;;;;;;;;4999987;28;20061;-90
2023/12/01 03:31:03;;;;;;;24.05;11.70;;;;;;;;;;5010614;28;20049;-89
2023/12/01 03:33:30;;;;;;;22.45;11.25;;;;;;;;;;5027114;28;20041;-90
2023/12/01 03:35:56;;;;;;;24.63;12.18;;;;;;;;;;5037878;28;20045;-90
2023/12/01 03:38:22;;;;;;;26.02;12.10;;;;;;;;;;5017027;28;20049;-90
2023/12/01 03:40:48;;;;;;;23.27;12.23;;;;;;;;;;5006921;28;20068;-90
2023/12/01 03:43:14;;;;;;;23.73;12.15;;;;;;;;;;4992409;28;20147;-90
2023/12/01 03:45:41;;;;;;;29.30;13.60;;;;;;;;;;5011519;28;20603;-90
2023/12/01 03:48:10;;;;;;;26.48;11.98;;;;;;;;;;5024426;28;20654;-89
2023/12/01 03:50:39;;;;;;;27.40;13.18;;;;;;;;;;5028342;28;20046;-91
2023/12/01 03:53:05;;;;;;;27.83;11.35;;;;;;;;;;5009667;28;20042;-89
2023/12/01 03:55:31;;;;;;;27.77;13.23;;;;;;;;;;5009587;28;20045;-90
2023/12/01 03:57:58;;;;;;;27.65;12.57;;;;;;;;;;4992045;28;20484;-89
2023/12/01 04:00:32;;;;;;;25.50;12.35;;;;;;;;;;5033580;28;20508;-89
2023/12/01 04:02:58;;;;;;;27.38;13.15;;;;;;;;;;5027403;28;20491;-89
2023/12/01 04:05:26;;;;;;;29.00;13.25;;;;;;;;;;5010022;28;20057;-90
2023/12/01 04:07:55;;;;;;;25.08;11.35;;;;;;;;;;5028659;28;20125;-90
2023/12/01 04:10:22;;;;;;;30.13;12.80;;;;;;;;;;5019657;28;20550;-88
2023/12/01 04:12:48;;;;;;;30.13;12.57;;;;;;;;;;5010745;28;20069;-89
2023/12/01 04:15:15;;;;;;;30.23;12.98;;;;;;;;;;5042640;28;20396;-89
2023/12/01 04:17:46;;;;;;;28.35;13.27;;;;;;;;;;5008938;28;20048;-89
2023/12/01 04:20:20;;;;;;;27.83;13.90;;;;;;;;;;5008298;28;20038;-90
2023/12/01 04:22:50;;;;;;;29.25;12.40;;;;;;;;;;5025219;28;20082;-89
2023/12/01 04:25:16;;;;;;;26.27;11.95;;;;;;;;;;5039498;28;20133;-90
2023/12/01 04:27:43;;;;;;;27.90;12.38;;;;;;;;;;4992445;28;20153;-88
2023/12/01 04:30:14;;;;;;;29.63;13.90;;;;;;;;;;5033513;28;20054;-89
2023/12/01 04:32:46;;;;;;;26.77;12.50;;;;;;;;;;5044393;28;20054;-89
2023/12/01 04:35:12;;;;;;;;;;;;;;;;;;5023071;28;20126;-89
2023/12/01 04:37:39;;;;;;;30.42;12.13;;;;;;;;;;5037911;28;20012;-89
2023/12/01 04:40:13;;;;;;;25.38;11.88;;;;;;;;;;5005910;28;20799;-90
2023/12/01 04:42:39;;;;;;;28.55;12.43;;;;;;;;;;5024814;28;20556;-89
2023/12/01 04:45:06;;;;;;;24.40;11.88;;;;;;;;;;5024128;28;20047;-88
2023/12/01 04:47:33;;;;;;;28.60;12.52;;;;;;;;;;5025741;28;20034;-88
2023/12/01 04:50:00;;;;;;;28.20;12.60;;;;;;;;;;5025479;28;20050;-89
2023/12/01 04:52:26;;;;;;;27.20;12.88;;;;;;;;;;5025638;28;20078;-89
2023/12/01 04:54:54;;;;;;;29.08;13.85;;;;;;;;;;5009869;28;20081;-89
2023/12/01 04:57:24;;;;;;;26.52;12.20;;;;;;;;;;5007702;28;20046;-90
2023/12/01 04:59:55;;;;;;;28.38;12.35;;;;;;;;;;5024112;28;20045;-90
2023/12/01 05:02:26;;;;;;;32.72;13.27;;;;;;;;;;5042392;28;20512;-90
2023/12/01 05:04:52;;;;;;;30.08;13.63;;;;;;;;;;5027951;28;20464;-90
2023/12/01 05:07:19;;;;;;;30.25;12.65;;;;;;;;;;5043218;28;20096;-90
2023/12/01 05:09:47;;;;;;;31.20;13.55;;;;;;;;;;5004594;28;20058;-88
2023/12/01 05:12:13;;;;;;;29.02;13.82;;;;;;;;;;5000807;28;20136;-90
2023/12/01 05:14:39;;;;;;;33.08;14.32;;;;;;;;;;5011219;28;20049;-90
2023/12/01 05:17:07;;;;;;;34.47;14.00;;;;;;;;;;5006285;28;20062;-88
2023/12/01 05:19:33;;;;;;;30.95;14.52;;;;;;;;;;5027868;28;20065;-89
2023/12/01 05:21:59;;;;;;;32.38;13.60;;;;;;;;;;5026952;28;20052;-90
2023/12/01 05:24:28;;;;;;;33.78;13.20;;;;;;;;;;5025646;28;20050;-90
2023/12/01 05:26:54;;;;;;;30.15;13.23;;;;;;;;;;4990710;28;20165;-90
2023/12/01 05:29:20;;;;;;;28.90;12.75;;;;;;;;;;5009775;28;20145;-89
2023/12/01 05:31:46;;;;;;;30.40;13.48;;;;;;;;;;4996666;28;20042;-89
2023/12/01 05:34:12;;;;;;;27.98;13.18;;;;;;;;;;5007745;28;20478;-90
2023/12/01 05:36:37;;;;;;;33.25;13.65;;;;;;;;;;5023097;28;20042;-90
2023/12/01 05:39:12;;;;;;;33.50;12.95;;;;;;;;;;5008936;28;20065;-89
2023/12/01 05:41:38;;;;;;;31.58;13.23;;;;;;;;;;4998592;28;20053;-90
2023/12/01 05:44:05;;;;;;;31.80;13.07;;;;;;;;;;5019858;28;20054;-91
2023/12/01 05:46:32;;;;;;;28.85;13.55;;;;;;;;;;5006621;28;20038;-90
2023/12/01 05:49:00;;;;;;;33.70;13.68;;;;;;;;;;5020516;28;20537;-89
2023/12/01 05:51:26;;;;;;;31.52;12.93;;;;;;;;;;5012140;28;20814;-89
2023/12/01 05:53:53;;;;;;;32.60;14.23;;;;;;;;;;5027881;28;20790;-90
2023/12/01 05:56:19;;;;;;;30.80;13.65;;;;;;;;;;5037643;28;20116;-89
2023/12/01 05:58:46;;;;;;;31.40;12.50;;;;;;;;;;5007870;28;20049;-89
2023/12/01 06:01:35;;;;;;;27.40;12.65;;;;;;;;;;5028639;28;20504;-92
2023/12/01 06:04:02;;;;;;;35.05;13.93;;;;;;;;;;5014721;28;20042;-90
2023/12/01 06:06:29;;;;;;;33.50;13.13;;;;;;;;;;5011947;28;20109;-90
2023/12/01 06:08:55;;;;;;;30.77;13.05;;;;;;;;;;5035946;28;20457;-88
2023/12/01 06:11:21;;;;;;;30.25;13.50;;;;;;;;;;5013237;28;20038;-90
2023/12/01 06:13:48;;;;;;;29.75;12.55;;;;;;;;;;5030812;28;20061;-89
2023/12/01 06:16:14;;;;;;;30.45;12.68;;;;;;;;;;5013999;28;20511;-89
2023/12/01 06:18:41;;;;;;;33.15;14.35;;;;;;;;;;5014400;28;20050;-89
2023/12/01 06:21:09;;;;;;;32.67;13.75;;;;;;;;;;5014870;28;20437;-90
2023/12/01 06:23:35;;;;;;;29.00;12.57;;;;;;;;;;5013957;28;20053;-89
2023/12/01 06:26:02;;;;;;;31.40;12.93;;;;;;;;;;5012610;28;20054;-88
2023/12/01 06:28:29;;;;;;;33.20;13.23;;;;;;;;;;5013166;28;20054;-91
2023/12/01 06:30:56;;;;;;;31.88;13.02;;;;;;;;;;5013311;28;20108;-89
2023/12/01 06:33:26;;;;;;;32.35;13.35;;;;;;;;;;5030969;28;20134;-90
2023/12/01 06:35:54;;;;;;;31.75;13.32;;;;;;;;;;5030834;28;20046;-89
2023/12/01 06:38:20;;;;;;;28.08;12.25;;;;;;;;;;5000525;28;20119;-86
2023/12/01 06:40:47;;;;;;;26.80;11.93;;;;;;;;;;5033768;28;20109;-87
2023/12/01 06:43:15;;;;;;;29.42;12.52;;;;;;;;;;5017088;28;20587;-89
2023/12/01 06:45:42;;;;;;;31.05;11.55;;;;;;;;;;5013336;28;20058;-88
2023/12/01 06:48:08;;;;;;;27.02;11.88;;;;;;;;;;5009728;28;20736;-89
2023/12/01 06:50:34;;;;;;;30.00;12.13;;;;;;;;;;5005907;28;20054;-87
2023/12/01 06:53:00;;;;;;;27.15;11.88;;;;;;;;;;5006306;28;20045;-89
2023/12/01 06:55:28;;;;;;;27.73;12.68;;;;;;;;;;5025918;28;20046;-86
2023/12/01 06:57:54;;;;;;;27.27;12.02;;;;;;;;;;5012128;28;20049;-89
2023/12/01 07:00:30;;;;;;;28.52;12.20;;;;;;;;;;5012822;28;20088;-89
2023/12/01 07:02:56;;;;;;;23.85;10.23;;;;;;;;;;5012577;28;20046;-90
2023/12/01 07:05:25;;;;;;;29.15;12.45;;;;;;;;;;5008818;28;20046;-90
2023/12/01 07:07:54;;;;;;;29.50;12.35;;;;;;;;;;5027461;28;20192;-88
2023/12/01 07:10:23;;;;;;;29.90;12.82;;;;;;;;;;5010720;28;20042;-89
2023/12/01 07:12:50;;;;;;;27.23;11.80;;;;;;;;;;5029162;28;20145;-89
2023/12/01 07:15:20;;;;;;;30.45;12.43;;;;;;;;;;5014946;28;20780;-89
2023/12/01 07:17:48;;;;;;;29.63;13.10;;;;;;;;;;5019225;28;20053;-88
2023/12/01 07:20:14;;;;;;;31.30;12.30;;;;;;;;;;5030546;28;20069;-89
2023/12/01 07:22:45;;;;;;;30.33;12.73;;;;;;;;;;5027937;28;20061;-89
2023/12/01 07:25:21;;;;;;;29.35;12.98;;;;;;;;;;5011772;28;20393;-85
2023/12/01 07:27:48;;;;;;;28.48;11.93;;;;;;;;;;5010816;28;20099;-89
2023/12/01 07:30:17;;;;;;;28.27;12.60;;;;;;;;;;5009856;28;20053;-89
2023/12/01 07:32:46;;;;;;;31.30;12.60;;;;;;;;;;5025787;28;20109;-88
2023/12/01 07:35:14;;;;;;;30.70;13.07;;;;;;;;;;5025475;28;20050;-87
2023/12/01 07:37:42;;;;;;;29.88;12.63;;;;;;;;;;5026635;28;20061;-89
2023/12/01 07:40:09;;;;;;;29.65;12.85;;;;;;;;;;5011744;28;20129;-88
2023/12/01 07:42:35;;;;;;;30.95;11.43;;;;;;;;;;5012451;28;20112;-89
2023/12/01 07:45:01;;;;;;;29.55;12.27;;;;;;;;;;5009429;28;20058;-90
2023/12/01 07:47:27;;;;;;;28.88;12.50;;;;;;;;;;5009848;28;20125;-90
2023/12/01 07:49:53;;;;;;;29.58;12.52;;;;;;;;;;5009516;28;20072;-92
2023/12/01 07:52:22;;;;;;;30.90;12.02;;;;;;;;;;5009608;28;20046;-89
2023/12/01 07:54:48;;;;;;;30.85;12.55;;;;;;;;;;5006970;28;20148;-88
2023/12/01 07:57:14;;;;;;;25.80;11.93;;;;;;;;;;5005816;28;20555;-88
2023/12/01 07:59:40;;;;;;;29.83;13.75;;;;;;;;;;5011998;28;20124;-89
2023/12/01 08:02:09;;;;;;;30.38;12.02;;;;;;;;;;5011694;28;20050;-88
2023/12/01 08:04:35;;;;;;;29.30;12.25;;;;;;;;;;5012177;28;20049;-87
2023/12/01 08:07:01;;;;;;;29.60;13.48;;;;;;;;;;5029758;28;20046;-91
2023/12/01 08:09:31;;;;;;;30.33;12.55;;;;;;;;;;5028777;28;20052;-86
2023/12/01 08:12:00;;;;;;;29.15;12.05;;;;;;;;;;5011060;28;20601;-92
2023/12/01 08:14:26;;;;;;;32.55;14.20;;;;;;;;;;5010162;28;20455;-87
2023/12/01 08:16:55;;;;;;;28.35;11.90;;;;;;;;;;5026971;28;20041;-87
2023/12/01 08:19:21;;;;;;;28.63;11.80;;;;;;;;;;5027151;28;20435;-88
2023/12/01 08:21:47;;;;;;;26.58;11.27;;;;;;;;;;5026596;28;20440;-87
2023/12/01 08:24:13;;;;;;;30.45;12.15;;;;;;;;;;5025478;28;20049;-89
2023/12/01 08:26:41;;;;;;;29.73;12.10;;;;;;;;;;5012567;28;20519;-89
2023/12/01 08:29:09;;;;;;;28.88;12.10;;;;;;;;;;5047890;28;20042;-89
2023/12/01 08:31:38;;;;;;;26.85;11.43;;;;;;;;;;5030460;28;20041;-89
2023/12/01 08:34:07;;;;;;;29.40;12.25;;;;;;;;;;4992794;28;20061;-90
2023/12/01 08:36:37;;;;;;;29.27;12.38;;;;;;;;;;5024148;28;20171;-91
2023/12/01 08:39:04;;;;;;;33.13;13.00;;;;;;;;;;5028959;28;20042;-90
2023/12/01 08:41:33;;;;;;;31.90;13.27;;;;;;;;;;5028097;28;20041;-90
2023/12/01 08:44:01;;;;;;;27.55;12.38;;;;;;;;;;5028721;28;20393;-90
2023/12/01 08:46:27;;;;;;;30.10;12.95;;;;;;;;;;5027869;28;20053;-90
2023/12/01 08:48:56;;;;;;;29.35;12.57;;;;;;;;;;5022069;28;20054;-92
2023/12/01 08:51:26;;;;;;;32.33;12.60;;;;;;;;;;5025663;28;20114;-90
2023/12/01 08:53:52;;;;;;;31.30;12.77;;;;;;;;;;5007251;28;20441;-91
2023/12/01 08:56:18;;;;;;;30.17;12.93;;;;;;;;;;5025814;28;20038;-87
2023/12/01 08:58:44;;;;;;;27.38;11.57;;;;;;;;;;5007232;28;20050;-89
2023/12/01 09:01:10;;;;;;;29.75;12.00;;;;;;;;;;5008315;28;20068;-90
2023/12/01 09:03:36;;;;;;;28.80;12.85;;;;;;;;;;4992113;28;20151;-90
2023/12/01 09:06:03;;;;;;;25.92;10.82;;;;;;;;;;5003867;28;20050;-89
2023/12/01 09:08:30;;;;;;;29.00;11.48;;;;;;;;;;5028472;28;20089;-90
2023/12/01 09:10:58;;;;;;;28.90;11.82;;;;;;;;;;5028137;28;20093;-89
2023/12/01 09:13:27;;;;;;;33.80;12.82;;;;;;;;;;5028495;28;20105;-91
2023/12/01 09:15:55;;;;;;;27.73;10.93;;;;;;;;;;5028508;28;20084;-90
2023/12/01 09:18:23;;;;;;;24.92;10.98;;;;;;;;;;5027860;28;20046;-87
2023/12/01 09:20:50;;;;;;;27.48;11.30;;;;;;;;;;5027372;28;20050;-90
2023/12/01 09:23:16;;;;;;;26.77;10.63;;;;;;;;;;5007107;28;20481;-90
2023/12/01 09:25:42;;;;;;;25.90;11.73;;;;;;;;;;4994557;28;20412;-90
2023/12/01 09:28:08;;;;;;;26.88;11.35;;;;;;;;;;5010539;28;20049;-91
2023/12/01 09:30:34;;;;;;;24.85;10.48;;;;;;;;;;5012107;28;20133;-89
2023/12/01 09:33:02;;;;;;;25.80;11.38;;;;;;;;;;4993383;28;20074;-90
2023/12/01 09:35:29;;;;;;;23.77;11.70;;;;;;;;;;4999617;28;20694;-90
2023/12/01 09:37:55;;;;;;;25.08;11.02;;;;;;;;;;5010219;28;20396;-87
2023/12/01 09:40:22;;;;;;;21.05;10.25;;;;;;;;;;5027075;28;20061;-88
2023/12/01 09:42:49;;;;;;;28.05;10.80;;;;;;;;;;5027306;28;20045;-90
2023/12/01 09:45:26;;;;;;;21.52;9.60;;;;;;;;;;5010500;28;20053;-90
2023/12/01 09:47:56;;;;;;;21.67;10.40;;;;;;;;;;5007376;28;20054;-90
2023/12/01 09:50:22;;;;;;;20.80;9.50;;;;;;;;;;4990534;28;20077;-90
2023/12/01 09:52:52;;;;;;;21.67;9.27;;;;;;;;;;5008237;28;20046;-89
2023/12/01 09:55:19;;;;;;;20.65;9.68;;;;;;;;;;5009858;28;20563;-88
2023/12/01 09:57:45;;;;;;;20.40;9.98;;;;;;;;;;5006769;28;20060;-88
2023/12/01 10:00:11;;;;;;;19.08;9.38;;;;;;;;;;5025889;28;20052;-88
2023/12/01 10:02:39;;;;;;;19.88;8.57;;;;;;;;;;5008495;28;20085;-88
2023/12/01 10:05:13;;;;;;;19.95;9.73;;;;;;;;;;5008904;28;20551;-87
2023/12/01 10:07:39;;;;;;;23.55;9.43;;;;;;;;;;5021962;28;20093;-85
2023/12/01 10:10:22;;;;;;;20.33;9.75;;;;;;;;;;5005659;28;20062;-88
2023/12/01 10:12:55;;;;;;;17.50;9.80;;;;;;;;;;5008052;28;20042;-83
2023/12/01 10:15:21;;;;;;;18.77;9.40;;;;;;;;;;5004883;28;20155;-88
2023/12/01 10:17:47;;;;;;;20.40;9.63;;;;;;;;;;5021375;28;20038;-85
2023/12/01 10:20:21;;;;;;;18.63;9.45;;;;;;;;;;5023248;28;20057;-91
2023/12/01 10:22:49;;;;;;;20.30;9.52;;;;;;;;;;5031402;28;20110;-92
2023/12/01 10:25:16;;;;;;;15.75;8.32;;;;;;;;;;5023745;28;20054;-91
2023/12/01 10:27:42;;;;;;;19.83;9.25;;;;;;;;;;5015707;28;20481;-91
2023/12/01 10:33:24;;;;;;;17.67;8.20;;;;;;;;;;5035485;28;20145;-90
2023/12/01 10:36:08;;;;;;;16.65;9.38;;;;;;;;;;4991817;28;20129;-89
2023/12/01 10:38:35;;;;;;;16.35;7.95;;;;;;;;;;5006752;28;20497;-87
2023/12/01 10:41:05;;;;;;;15.93;8.52;;;;;;;;;;5006203;28;20042;-90
2023/12/01 10:43:32;;;;;;;16.65;8.98;;;;;;;;;;5018167;28;20042;-86
2023/12/01 10:46:09;;;;;;;14.70;8.18;;;;;;;;;;5024262;28;20077;-84
2023/12/01 10:48:35;;;;;;;14.90;8.50;;;;;;;;;;5028718;28;20034;-88
2023/12/01 10:51:05;;;;;;;17.10;9.35;;;;;;;;;;5016078;28;20149;-88
2023/12/01 10:53:32;;;;;;;15.30;8.40;;;;;;;;;;5023840;28;20053;-87
2023/12/01 10:56:02;;;;;;;17.67;8.90;;;;;;;;;;5026760;28;20046;-87
2023/12/01 10:58:31;;;;;;;16.55;9.05;;;;;;;;;;5026537;28;20042;-90
2023/12/01 11:00:58;;;;;;;17.48;8.70;;;;;;;;;;5013222;28;20049;-87
2023/12/01 11:03:25;;;;;;;13.90;8.20;;;;;;;;;;5012831;28;20105;-89
2023/12/01 11:06:04;;;;;;;16.73;8.88;;;;;;;;;;5009379;28;20038;-93
2023/12/01 11:08:59;;;;;;;16.23;8.30;;;;;;;;;;5015277;28;20450;-88
2023/12/01 11:11:32;;;;;;;16.35;8.40;;;;;;;;;;5026256;28;20046;-89
2023/12/01 11:14:10;;;;;;;17.35;9.57;;;;;;;;;;5015833;28;20046;-88
2023/12/01 11:16:36;;;;;;;17.75;8.63;;;;;;;;;;5010523;28;20042;-87
2023/12/01 11:19:02;;;;;;;16.98;8.45;;;;;;;;;;5009476;28;20113;-86
2023/12/01 11:21:29;;;;;;;15.65;8.55;;;;;;;;;;5010964;28;20050;-86
2023/12/01 11:23:55;;;;;;;14.93;8.98;;;;;;;;;;5010037;28;20096;-87
2023/12/01 11:26:26;;;;;;;17.00;9.43;;;;;;;;;;5009472;28;20260;-84
2023/12/01 11:29:04;;;;;;;17.67;8.70;;;;;;;;;;5000434;28;20051;-89
2023/12/01 11:34:00;;;;;;;15.35;9.48;;;;;;;;;;5040700;28;20041;-89
2023/12/01 11:36:27;;;;;;;15.38;8.95;;;;;;;;;;5012832;28;20439;-88
2023/12/01 11:39:17;;;;;;;15.48;9.55;;;;;;;;;;4991492;28;20587;-88
2023/12/01 11:41:44;;;;;;;15.27;9.00;;;;;;;;;;5009973;28;20092;-88
2023/12/01 11:44:30;;;;;;;14.82;8.52;;;;;;;;;;5004876;28;20054;-88
2023/12/01 11:46:57;;;;;;;15.32;8.00;;;;;;;;;;4993909;28;20042;-86
2023/12/01 11:49:27;;;;;;;14.55;8.77;;;;;;;;;;5009285;28;20056;-87
2023/12/01 11:51:53;;;;;;;15.65;8.60;;;;;;;;;;4994234;28;20448;-85
2023/12/01 11:54:20;;;;;;;15.68;8.70;;;;;;;;;;4989914;28;20388;-87
2023/12/01 11:56:47;;;;;;;15.32;8.43;;;;;;;;;;5006604;28;20115;-87
2023/12/01 11:59:13;;;;;;;15.25;8.95;;;;;;;;;;5008944;28;20037;-89
2023/12/01 12:01:39;;;;;;;17.88;9.07;;;;;;;;;;5009473;28;20563;-90
2023/12/01 12:04:09;;;;;;;15.85;9.65;;;;;;;;;;5012277;28;20814;-93
2023/12/01 12:06:35;;;;;;;16.30;10.10;;;;;;;;;;5024732;28;20073;-91
2023/12/01 12:09:06;;;;;;;16.48;8.95;;;;;;;;;;5029193;28;20114;-91
2023/12/01 12:11:36;;;;;;;15.98;9.02;;;;;;;;;;5017352;28;20084;-91
2023/12/01 12:14:05;;;;;;;14.18;8.73;;;;;;;;;;4997211;28;20038;-90
2023/12/01 12:16:31;;;;;;;14.88;9.85;;;;;;;;;;5009813;28;20046;-91
2023/12/01 12:18:57;;;;;;;17.10;9.48;;;;;;;;;;5024017;28;20121;-90
2023/12/01 12:21:24;;;;;;;18.63;10.60;;;;;;;;;;5027044;28;20061;-90
2023/12/01 12:23:49;;;;;;;16.27;9.90;;;-0.20;99.90;;;;;;5009554;28;20181;-88
2023/12/01 12:26:17;;;;;;;16.35;9.95;;;;;;;;;;4992535;28;20129;-89
2023/12/01 12:28:44;;;;;;;16.63;10.05;;;;;;;;;;5008098;28;20119;-86
2023/12/01 12:31:10;;;;;;;17.92;9.38;;;;;;;;;;5009290;28;20054;-90
2023/12/01 12:33:36;;;;;;;17.17;9.57;;;;;;;;;;4993181;28;20038;-90
2023/12/01 12:36:04;;;;;;;15.40;9.27;;;;;;;;;;5042901;28;20057;-91
2023/12/01 12:38:30;;;;;;;19.98;10.63;;;;;;;;;;5026435;28;20053;-89
2023/12/01 12:40:56;;;;;;;16.98;9.95;;;;;;;;;;5010359;28;20060;-90
2023/12/01 12:43:23;;;;;;;17.65;9.70;;;;;;;;;;5043595;28;20056;-89
2023/12/01 12:45:49;;;;;;;17.85;10.18;;;;;;;;;;5026335;28;20619;-90
2023/12/01 12:48:15;;;;;;;18.75;10.93;;;;;;;;;;4994613;28;20046;-90
2023/12/01 12:50:42;;;;;;;16.77;9.98;;;;;;;;;;5005321;28;20164;-87
2023/12/01 12:53:08;;;;;;;17.45;10.75;;;;;;;;;;5004162;28;20070;-82
2023/12/01 12:55:35;;;;;;;18.60;10.75;;;;;;;;;;5005341;28;20046;-88
2023/12/01 12:58:01;;;;;;;18.00;10.43;;;;;;;;;;5004878;28;20073;-84
2023/12/01 13:00:27;;;;;;;17.58;10.90;;;;;;;;;;5032521;28;20383;-86
2023/12/01 13:02:53;;;;;;;15.30;10.15;;;;;;;;;;5007491;28;20050;-90
2023/12/01 13:05:20;;;;;;;15.38;9.85;;;;;;;;;;5025241;28;20081;-89
2023/12/01 13:07:46;;;;;;;17.63;10.63;;;;;;;;;;5007857;28;20081;-87
2023/12/01 13:10:12;;;;;;;16.65;10.00;;;;;;;;;;4991407;28;20049;-89
2023/12/01 13:12:38;;;;;;;17.00;10.35;;;;;;;;;;5010470;28;20046;-89
2023/12/01 13:15:05;;;;;;;17.83;10.68;;;;;;;;;;5009289;28;20585;-90
2023/12/01 13:17:31;;;;;;;17.30;11.10;;;;;;;;;;5009547;28;20042;-88
2023/12/01 13:19:57;;;;;;;17.88;10.68;;;;;;;;;;5009533;28;20046;-88
2023/12/01 13:22:23;;;;;;;18.50;10.88;;;;;;;;;;5005790;28;20042;-92
2023/12/01 13:25:05;;;;;;;16.42;10.18;;;;;;;;;;5008788;28;20050;-92
2023/12/01 13:27:58;;;;;;;17.33;10.50;;;;;;;;;;5011171;28;20100;-92
2023/12/01 13:30:25;;;;;;;16.88;9.63;;;;;;;;;;5011036;28;20501;-92
2023/12/01 13:32:53;;;;;;;17.60;10.25;;;;;;;;;;5013212;28;20057;-92
2023/12/01 13:35:20;;;;;;;17.23;10.48;;;;;;;;;;5013169;28;20497;-87
2023/12/01 13:37:46;;;;;;;17.65;10.52;;;;;;;;;;5002248;28;20480;-86
2023/12/01 13:40:12;;;;;;;16.23;9.88;;;;;;;;;;5007288;28;20052;-88
2023/12/01 13:42:38;;;;;;;18.67;10.95;;;;;;;;;;5007409;28;20196;-88
2023/12/01 13:45:07;;;;;;;17.08;10.68;;;;;;;;;;5007718;28;20574;-88
2023/12/01 13:47:34;;;;;;;17.80;10.35;;;;;;;;;;5008068;28;20057;-89
2023/12/01 13:50:00;;;;;;;17.77;10.88;;;;;;;;;;5041467;28;20045;-87
2023/12/01 13:52:27;;;;;;;17.55;11.00;;;;;;;;;;5007344;28;20092;-87
2023/12/01 13:54:56;;;;;;;16.67;10.43;;;;;;;;;;5006424;28;20042;-87
2023/12/01 13:57:22;;;;;;;17.50;10.38;;;;;;;;;;5023771;28;20133;-87
2023/12/01 13:59:48;;;;;;;16.88;10.30;;;;;;;;;;5006947;28;20556;-88
2023/12/01 14:02:15;;;;;;;14.90;10.25;;;;;;;;;;5023023;28;20137;-88
2023/12/01 14:04:42;;;;;;;15.82;9.48;;;;;;;;;;5007393;28;20085;-87
2023/12/01 14:07:08;;;;;;;17.48;10.32;;;;;;;;;;5022092;28;20042;-87
2023/12/01 14:09:35;;;;;;;15.45;9.43;;;;;;;;;;5006688;28;20147;-86
2023/12/01 14:12:03;;;;;;;14.63;9.02;;;;;;;;;;5006920;28;20046;-87
2023/12/01 14:14:29;;;;;;;14.38;8.73;;;;;;;;;;5023218;28;20053;-88
2023/12/01 14:16:55;;;;;;;15.27;9.48;;;;;;;;;;5006808;28;20042;-87
2023/12/01 14:19:21;;;;;;;14.63;9.30;;;;;;;;;;5022530;28;20041;-87
2023/12/01 14:21:47;;;;;;;13.23;8.57;;;;;;;;;;5024655;28;20058;-88
2023/12/01 14:24:13;;;;;;;14.95;9.52;;;;;;;;;;5026206;28;20120;-88
2023/12/01 14:26:39;;;;;;;15.85;9.90;;;;;;;;;;5013870;28;20093;-88
2023/12/01 14:29:05;;;;;;;16.42;10.23;;;;;;;;;;5007090;28;20061;-87